Time;durP1;ratioP1;P1;durP2;ratioP2;P2;SDS_P1;SDS_P2;PMS_P1;PMS_P2;Temp;Humidity;BMP_temperature;BMP_pressure;BME280_temperature;BME280_humidity;BME280_pressure;Samples;Min_cycle;Max_cycle;Signal;HPM_P1;HPM_P2
2022/09/15 00:00:53;;;;;;;1.27;0.73;;;16.30;61.70;;;;;;5054156;28;20055;-68
2022/09/15 00:03:21;;;;;;;2.80;0.90;;;16.30;61.70;;;;;;5053649;28;20123;-68
2022/09/15 00:05:46;;;;;;;3.33;1.33;;;16.30;61.60;;;;;;5053938;28;20047;-68
2022/09/15 00:08:12;;;;;;;2.33;1.23;;;16.20;61.60;;;;;;5054046;28;20045;-68
2022/09/15 00:10:47;;;;;;;2.92;1.30;;;16.20;61.70;;;;;;5054167;28;20063;-68
2022/09/15 00:13:12;;;;;;;;;;;16.20;61.80;;;;;;5038684;28;20044;-68
2022/09/15 00:15:38;;;;;;;2.65;1.63;;;16.10;61.40;;;;;;5037293;28;19920;-68
2022/09/15 00:18:05;;;;;;;1.95;1.15;;;16.10;61.80;;;;;;5053193;28;20044;-68
2022/09/15 00:20:31;;;;;;;2.22;1.58;;;16.10;61.90;;;;;;5054018;28;20048;-68
2022/09/15 00:22:56;;;;;;;3.42;1.30;;;16.00;61.90;;;;;;5053693;28;20029;-68
2022/09/15 00:25:22;;;;;;;1.90;1.50;;;16.00;62.00;;;;;;5054083;28;20076;-68
2022/09/15 00:27:48;;;;;;;2.70;1.88;;;16.00;62.20;;;;;;5053416;28;20037;-68
2022/09/15 00:30:14;;;;;;;4.95;2.72;;;16.00;62.40;;;;;;5053328;28;20120;-68
2022/09/15 00:32:40;;;;;;;3.08;2.00;;;15.90;62.60;;;;;;5054186;28;20473;-68
2022/09/15 00:35:05;;;;;;;5.82;3.35;;;15.90;62.80;;;;;;5053666;28;20091;-68
2022/09/15 00:37:32;;;;;;;4.22;2.17;;;15.90;63.40;;;;;;5053332;28;20037;-68
2022/09/15 00:39:58;;;;;;;3.75;2.10;;;15.90;63.30;;;;;;5052302;28;20545;-68
2022/09/15 00:42:24;;;;;;;4.25;2.47;;;15.90;63.40;;;;;;5053117;28;20041;-68
2022/09/15 00:45:02;;;;;;;4.70;2.25;;;15.90;63.50;;;;;;5034514;28;20037;-68
2022/09/15 00:47:33;;;;;;;3.40;1.92;;;15.90;63.70;;;;;;5053106;28;20178;-68
2022/09/15 00:50:08;;;;;;;7.38;2.38;;;15.80;63.80;;;;;;5053407;28;20045;-68
2022/09/15 00:52:56;;;;;;;4.18;1.88;;;15.80;64.10;;;;;;5052774;28;20087;-68
2022/09/15 00:55:30;;;;;;;3.50;1.80;;;15.80;64.40;;;;;;5051991;28;20044;-68
2022/09/15 00:58:05;;;;;;;;;;;15.80;64.40;;;;;;5053630;28;20041;-68
2022/09/15 01:00:32;;;;;;;4.30;1.52;;;15.80;64.10;;;;;;5052482;28;19962;-68
2022/09/15 01:02:58;;;;;;;3.25;1.42;;;15.80;64.40;;;;;;5052530;28;20485;-68
2022/09/15 01:05:33;;;;;;;3.63;1.33;;;15.80;64.70;;;;;;5052269;28;20053;-68
2022/09/15 01:08:10;;;;;;;3.55;1.15;;;15.80;64.80;;;;;;5034896;28;20041;-68
2022/09/15 01:10:38;;;;;;;3.58;1.55;;;15.80;64.70;;;;;;5052599;28;20056;-68
2022/09/15 01:13:10;;;;;;;3.58;1.08;;;15.80;64.70;;;;;;5052532;28;20043;-69
2022/09/15 01:15:51;;;;;;;2.33;0.82;;;15.80;64.60;;;;;;5050135;28;20103;-69
2022/09/15 01:18:25;;;;;;;2.90;1.42;;;15.80;64.60;;;;;;5052841;28;20059;-68
2022/09/15 01:21:26;;;;;;;2.70;0.90;;;15.80;64.60;;;;;;5052133;28;20037;-68
2022/09/15 01:24:30;;;;;;;3.70;1.10;;;15.90;64.70;;;;;;5050177;28;20131;-68
2022/09/15 01:27:28;;;;;;;2.63;0.95;;;15.80;64.40;;;;;;5051942;28;20047;-68
2022/09/15 01:30:01;;;;;;;3.55;1.00;;;15.90;64.40;;;;;;5048154;28;20056;-68
2022/09/15 01:33:03;;;;;;;2.60;0.95;;;15.90;64.50;;;;;;5052397;28;20127;-68
2022/09/15 01:35:30;;;;;;;2.95;0.90;;;15.90;64.40;;;;;;5052098;28;20033;-68
2022/09/15 01:38:27;;;;;;;3.33;1.10;;;15.80;64.50;;;;;;5052488;28;20439;-68
2022/09/15 01:41:20;;;;;;;4.93;1.13;;;15.90;64.50;;;;;;5052226;28;20033;-68
2022/09/15 01:43:58;;;;;;;2.03;1.02;;;15.90;64.30;;;;;;5051534;28;20044;-67
2022/09/15 01:46:28;;;;;;;4.82;1.35;;;15.90;64.40;;;;;;5051686;28;20072;-67
2022/09/15 01:48:55;;;;;;;2.67;1.10;;;15.90;64.40;;;;;;5052535;28;20375;-67
2022/09/15 01:51:22;;;;;;;4.00;1.08;;;15.90;64.40;;;;;;5052237;28;20048;-68
2022/09/15 01:53:50;;;;;;;3.28;1.10;;;15.90;64.50;;;;;;5049676;28;20461;-68
2022/09/15 01:56:16;;;;;;;2.65;1.02;;;15.90;64.40;;;;;;5051814;28;20041;-68
2022/09/15 01:58:41;;;;;;;4.45;1.40;;;15.90;64.40;;;;;;5051720;28;20450;-68
2022/09/15 02:01:20;;;;;;;5.57;1.40;;;15.90;64.40;;;;;;5051464;28;20033;-68
2022/09/15 02:03:54;;;;;;;3.75;1.30;;;16.00;64.40;;;;;;5056892;28;20567;-68
2022/09/15 02:06:30;;;;;;;;;;;16.00;64.30;;;;;;5051681;28;20037;-68
2022/09/15 02:09:01;;;;;;;4.03;1.10;;;15.90;63.80;;;;;;5035327;28;19917;-68
2022/09/15 02:11:29;;;;;;;3.08;1.13;;;15.90;64.20;;;;;;5051548;28;20033;-68
2022/09/15 02:14:17;;;;;;;4.72;1.67;;;15.90;64.20;;;;;;5051341;28;20484;-68
2022/09/15 02:16:50;;;;;;;2.72;1.52;;;15.90;64.20;;;;;;5050957;28;20050;-68
2022/09/15 02:19:30;;;;;;;3.20;1.17;;;15.90;64.30;;;;;;5051368;28;20037;-68
2022/09/15 02:22:03;;;;;;;3.97;1.38;;;15.90;64.50;;;;;;5050353;28;20037;-68
2022/09/15 02:24:34;;;;;;;3.70;1.48;;;16.00;64.80;;;;;;5051480;28;20045;-68
2022/09/15 02:27:03;;;;;;;3.03;1.10;;;15.90;64.90;;;;;;5062476;28;20112;-68
2022/09/15 02:29:32;;;;;;;3.55;1.27;;;15.90;64.80;;;;;;5051238;28;20033;-68
2022/09/15 02:32:01;;;;;;;3.92;1.38;;;15.90;64.80;;;;;;5051020;28;20389;-68
2022/09/15 02:34:32;;;;;;;5.88;1.10;;;15.90;64.80;;;;;;5051491;28;20424;-68
2022/09/15 02:36:59;;;;;;;2.92;0.90;;;15.90;64.70;;;;;;5049556;28;20055;-68
2022/09/15 02:39:33;;;;;;;4.38;1.00;;;15.90;64.70;;;;;;5051049;28;20032;-68
2022/09/15 02:42:01;;;;;;;4.75;1.13;;;15.90;64.70;;;;;;5050810;28;20052;-68
2022/09/15 02:44:29;;;;;;;3.80;1.00;;;15.90;64.70;;;;;;5034740;28;20033;-68
2022/09/15 02:46:56;;;;;;;3.80;1.05;;;15.90;64.70;;;;;;5052066;28;20110;-68
2022/09/15 02:49:22;;;;;;;4.53;0.95;;;15.90;64.70;;;;;;5050714;28;20415;-68
2022/09/15 02:51:47;;;;;;;2.92;0.90;;;15.90;64.60;;;;;;5050857;28;20036;-68
2022/09/15 02:54:13;;;;;;;7.18;1.30;;;15.90;64.60;;;;;;5034064;28;20037;-68
2022/09/15 02:56:39;;;;;;;3.28;0.85;;;15.90;64.50;;;;;;5050772;28;20049;-68
2022/09/15 02:59:05;;;;;;;4.20;1.20;;;15.90;64.40;;;;;;5033849;28;20033;-68
2022/09/15 03:01:33;;;;;;;5.15;1.02;;;15.90;64.30;;;;;;5050267;28;20059;-68
2022/09/15 03:04:00;;;;;;;1.27;0.55;;;15.90;64.20;;;;;;5048393;28;20072;-68
2022/09/15 03:06:33;;;;;;;3.33;0.88;;;15.90;64.20;;;;;;5050179;28;20056;-68
2022/09/15 03:09:00;;;;;;;2.97;0.77;;;15.90;64.00;;;;;;5050295;28;20435;-68
2022/09/15 03:11:27;;;;;;;4.75;1.02;;;15.90;63.80;;;;;;5050042;28;20520;-68
2022/09/15 03:14:04;;;;;;;3.85;0.98;;;15.90;63.70;;;;;;5050336;28;20068;-68
2022/09/15 03:16:33;;;;;;;5.47;0.95;;;15.90;63.60;;;;;;5050102;28;20079;-68
2022/09/15 03:18:58;;;;;;;3.33;1.02;;;15.90;63.50;;;;;;5033301;28;20037;-68
2022/09/15 03:21:26;;;;;;;3.67;0.85;;;15.90;63.40;;;;;;5050589;28;20124;-68
2022/09/15 03:23:51;;;;;;;3.00;0.70;;;15.90;63.40;;;;;;5050124;28;20044;-68
2022/09/15 03:26:17;;;;;;;3.47;0.70;;;15.90;63.20;;;;;;5050068;28;20392;-68
2022/09/15 03:28:43;;;;;;;2.95;0.68;;;15.90;63.10;;;;;;5049777;28;20044;-68
2022/09/15 03:31:09;;;;;;;4.35;1.10;;;15.90;63.00;;;;;;5050073;28;20045;-68
2022/09/15 03:33:36;;;;;;;2.42;0.60;;;15.90;62.90;;;;;;5050149;28;20444;-68
2022/09/15 03:36:02;;;;;;;3.30;0.93;;;15.90;62.80;;;;;;5050029;28;20068;-68
2022/09/15 03:38:28;;;;;;;3.65;1.00;;;16.00;62.70;;;;;;5049919;28;20037;-68
2022/09/15 03:40:58;;;;;;;3.30;0.90;;;16.00;62.70;;;;;;5050300;28;20052;-68
2022/09/15 03:43:24;;;;;;;2.50;0.70;;;16.00;62.70;;;;;;5049889;28;20507;-68
2022/09/15 03:45:50;;;;;;;3.40;0.60;;;16.00;62.70;;;;;;5050263;28;20041;-68
2022/09/15 03:48:16;;;;;;;3.55;0.65;;;16.00;62.70;;;;;;5051315;28;20037;-68
2022/09/15 03:50:42;;;;;;;3.97;0.75;;;16.00;62.60;;;;;;5050109;28;20045;-68
2022/09/15 03:53:07;;;;;;;2.35;0.55;;;16.00;62.60;;;;;;5049683;28;20041;-68
2022/09/15 03:55:33;;;;;;;3.03;0.65;;;16.00;62.60;;;;;;5033386;28;20037;-68
2022/09/15 03:57:58;;;;;;;1.58;0.40;;;16.00;62.50;;;;;;5049737;28;20037;-68
2022/09/15 04:00:24;;;;;;;3.70;0.80;;;16.00;62.50;;;;;;5050113;28;20040;-68
2022/09/15 04:02:50;;;;;;;4.15;0.90;;;16.00;62.50;;;;;;5049816;28;20108;-68
2022/09/15 04:05:16;;;;;;;1.77;0.52;;;16.00;62.40;;;;;;5050104;28;20128;-68
2022/09/15 04:07:42;;;;;;;2.08;0.50;;;16.00;62.40;;;;;;5049566;28;20141;-68
2022/09/15 04:10:08;;;;;;;4.28;1.25;;;16.00;62.40;;;;;;5048707;28;20102;-68
2022/09/15 04:12:35;;;;;;;1.88;0.60;;;16.00;62.40;;;;;;5033620;28;20091;-68
2022/09/15 04:15:01;;;;;;;3.85;0.90;;;16.00;62.30;;;;;;5049844;28;20055;-68
2022/09/15 04:17:27;;;;;;;4.05;1.00;;;16.00;62.20;;;;;;5049850;28;20706;-68
2022/09/15 04:19:53;;;;;;;2.40;0.77;;;16.00;62.20;;;;;;5048658;28;20116;-68
2022/09/15 04:22:19;;;;;;;2.58;0.70;;;16.00;62.10;;;;;;5050114;28;20029;-68
2022/09/15 04:24:46;;;;;;;2.40;0.60;;;16.00;62.10;;;;;;5049563;28;20094;-68
2022/09/15 04:27:13;;;;;;;2.92;0.65;;;16.00;62.00;;;;;;5049903;28;20386;-68
2022/09/15 04:29:38;;;;;;;2.30;0.50;;;16.00;62.00;;;;;;5034633;28;20116;-68
2022/09/15 04:32:04;;;;;;;3.63;0.70;;;16.00;62.00;;;;;;5053453;28;20140;-68
2022/09/15 04:34:30;;;;;;;3.33;0.70;;;16.00;61.90;;;;;;5053148;28;20045;-68
2022/09/15 04:36:56;;;;;;;2.55;0.75;;;16.00;61.80;;;;;;5053359;28;20041;-68
2022/09/15 04:39:21;;;;;;;2.63;0.50;;;16.00;61.80;;;;;;5053702;28;20458;-68
2022/09/15 04:41:47;;;;;;;3.05;1.05;;;16.00;61.70;;;;;;5052959;28;20635;-68
2022/09/15 04:44:13;;;;;;;4.25;0.70;;;16.00;61.70;;;;;;5053290;28;20025;-66
2022/09/15 04:46:38;;;;;;;2.33;0.63;;;16.00;61.70;;;;;;5053286;28;20053;-66
2022/09/15 04:49:04;;;;;;;4.35;0.80;;;16.00;61.70;;;;;;5021455;28;20037;-67
2022/09/15 04:51:30;;;;;;;2.30;0.68;;;16.00;62.00;;;;;;5036515;28;20404;-68
2022/09/15 04:53:56;;;;;;;2.45;0.70;;;16.00;61.80;;;;;;5052825;28;20051;-67
2022/09/15 04:56:25;;;;;;;2.75;1.00;;;16.00;61.80;;;;;;5052810;28;20037;-67
2022/09/15 04:58:58;;;;;;;3.78;1.20;;;16.00;61.80;;;;;;5052929;28;20041;-67
2022/09/15 05:01:32;;;;;;;5.13;1.13;;;15.90;61.70;;;;;;5052852;28;20377;-67
2022/09/15 05:04:02;;;;;;;4.63;0.70;;;15.90;61.80;;;;;;5053621;28;20128;-67
2022/09/15 05:06:28;;;;;;;4.72;1.30;;;15.90;61.80;;;;;;5038360;28;20059;-67
2022/09/15 05:08:56;;;;;;;2.70;0.80;;;15.90;61.70;;;;;;5037335;28;20040;-67
2022/09/15 05:11:22;;;;;;;3.88;1.25;;;15.90;61.70;;;;;;5037069;28;20041;-67
2022/09/15 05:13:48;;;;;;;3.75;1.15;;;15.90;61.70;;;;;;5053826;28;20051;-67
2022/09/15 05:16:17;;;;;;;3.75;0.82;;;15.90;61.70;;;;;;5053155;28;20516;-67
2022/09/15 05:18:44;;;;;;;4.05;1.05;;;15.90;61.70;;;;;;5053936;28;20044;-67
2022/09/15 05:21:12;;;;;;;3.17;0.90;;;15.90;61.80;;;;;;5053355;28;20108;-67
2022/09/15 05:23:38;;;;;;;2.80;0.70;;;15.90;61.80;;;;;;5036599;28;20069;-67
2022/09/15 05:26:07;;;;;;;2.80;0.90;;;15.90;61.80;;;;;;5052894;28;20041;-67
2022/09/15 05:28:35;;;;;;;4.55;1.00;;;15.90;61.80;;;;;;5053436;28;20036;-67
2022/09/15 05:31:06;;;;;;;4.63;0.95;;;15.90;61.80;;;;;;5053554;28;20045;-67
2022/09/15 05:33:33;;;;;;;4.03;0.98;;;15.90;61.80;;;;;;5052850;28;20408;-67
2022/09/15 05:35:59;;;;;;;2.10;0.73;;;15.90;61.80;;;;;;5052146;28;20065;-67
2022/09/15 05:38:28;;;;;;;4.20;0.93;;;15.90;61.90;;;;;;5053176;28;20044;-67
2022/09/15 05:40:54;;;;;;;5.45;1.58;;;15.90;61.90;;;;;;5052651;28;20104;-66
2022/09/15 05:43:20;;;;;;;4.82;1.15;;;15.90;62.30;;;;;;5052451;28;20037;-66
2022/09/15 05:45:55;;;;;;;5.03;1.02;;;15.90;61.90;;;;;;5051906;28;20404;-66
2022/09/15 05:48:21;;;;;;;2.15;0.80;;;15.90;61.90;;;;;;5051861;28;20053;-66
2022/09/15 05:50:51;;;;;;;4.95;0.98;;;15.90;61.90;;;;;;5053148;28;20044;-66
2022/09/15 05:53:18;;;;;;;2.38;0.60;;;15.90;61.90;;;;;;5053278;28;20071;-66
2022/09/15 05:55:44;;;;;;;4.55;0.70;;;15.90;62.00;;;;;;5052499;28;20053;-66
2022/09/15 05:58:09;;;;;;;2.95;0.82;;;15.90;61.90;;;;;;5052499;28;20041;-66
2022/09/15 06:00:35;;;;;;;4.30;0.95;;;15.90;61.90;;;;;;5052703;28;20076;-66
2022/09/15 06:03:02;;;;;;;4.45;1.55;;;16.00;61.90;;;;;;5052354;28;20046;-66
2022/09/15 06:05:28;;;;;;;2.80;1.02;;;15.90;61.90;;;;;;5052103;28;20045;-66
2022/09/15 06:07:55;;;;;;;3.28;0.90;;;16.00;62.00;;;;;;5052800;28;20124;-67
2022/09/15 06:10:23;;;;;;;3.75;1.30;;;16.00;61.90;;;;;;5053099;28;20045;-67
2022/09/15 06:12:52;;;;;;;3.58;1.10;;;16.00;61.90;;;;;;5052953;28;20391;-67
2022/09/15 06:15:18;;;;;;;4.03;1.10;;;16.00;61.80;;;;;;5051981;28;20057;-67
2022/09/15 06:17:43;;;;;;;3.63;1.05;;;16.00;61.80;;;;;;5052297;28;20041;-67
2022/09/15 06:20:09;;;;;;;6.32;1.50;;;16.00;61.80;;;;;;5052340;28;20055;-67
2022/09/15 06:22:35;;;;;;;3.70;0.80;;;16.10;61.80;;;;;;5052610;28;20045;-67
2022/09/15 06:25:01;;;;;;;2.63;0.70;;;16.10;61.80;;;;;;5052435;28;20045;-68
2022/09/15 06:27:26;;;;;;;4.20;0.90;;;16.10;61.60;;;;;;5052314;28;20048;-68
2022/09/15 06:29:52;;;;;;;4.88;0.93;;;16.10;61.50;;;;;;5051989;28;20063;-68
2022/09/15 06:32:18;;;;;;;3.55;0.82;;;16.10;61.40;;;;;;5052576;28;20041;-68
2022/09/15 06:34:43;;;;;;;4.70;1.10;;;16.20;61.30;;;;;;5035733;28;20074;-68
2022/09/15 06:37:10;;;;;;;3.13;0.60;;;16.20;61.10;;;;;;5052271;28;20044;-68
2022/09/15 06:39:35;;;;;;;3.90;1.10;;;16.20;60.90;;;;;;5052126;28;20052;-68
2022/09/15 06:42:01;;;;;;;5.68;1.45;;;16.20;60.80;;;;;;5052494;28;20477;-68
2022/09/15 06:44:27;;;;;;;5.28;1.10;;;16.20;60.70;;;;;;5051755;28;20033;-66
2022/09/15 06:46:52;;;;;;;6.90;1.20;;;16.20;60.60;;;;;;5052264;28;20389;-68
2022/09/15 06:49:18;;;;;;;4.03;1.00;;;16.20;60.40;;;;;;5051869;28;20118;-68
2022/09/15 06:51:44;;;;;;;4.03;0.90;;;16.20;60.20;;;;;;5051693;28;20132;-68
2022/09/15 06:54:10;;;;;;;7.13;1.50;;;16.20;60.30;;;;;;5051774;28;20053;-68
2022/09/15 06:56:36;;;;;;;6.53;1.35;;;16.30;60.30;;;;;;5051788;28;20068;-66
2022/09/15 06:59:02;;;;;;;6.10;1.30;;;16.30;60.40;;;;;;5052045;28;20514;-67
2022/09/15 07:01:31;;;;;;;6.45;1.60;;;16.30;60.40;;;;;;5051890;28;20037;-67
2022/09/15 07:03:59;;;;;;;5.63;1.20;;;16.30;60.50;;;;;;5051781;28;20043;-65
2022/09/15 07:06:30;;;;;;;6.32;1.33;;;16.30;60.30;;;;;;5051455;28;20523;-65
2022/09/15 07:08:57;;;;;;;5.07;1.40;;;16.40;60.30;;;;;;5052024;28;20036;-65
2022/09/15 07:11:24;;;;;;;9.13;1.65;;;16.40;60.30;;;;;;5051658;28;20110;-65
2022/09/15 07:13:49;;;;;;;4.50;1.15;;;16.40;60.20;;;;;;5052046;28;20083;-65
2022/09/15 07:16:17;;;;;;;7.18;1.30;;;16.40;60.50;;;;;;5051338;28;20053;-65
2022/09/15 07:18:44;;;;;;;6.55;1.20;;;16.50;60.30;;;;;;5052021;28;20040;-65
2022/09/15 07:21:12;;;;;;;5.28;1.33;;;16.50;60.40;;;;;;5051525;28;20032;-65
2022/09/15 07:23:39;;;;;;;5.40;1.30;;;16.50;60.00;;;;;;5051627;28;20072;-65
2022/09/15 07:26:09;;;;;;;5.70;0.90;;;16.60;59.70;;;;;;5035118;28;20072;-65
2022/09/15 07:28:35;;;;;;;4.25;1.02;;;16.60;59.60;;;;;;5051702;28;20044;-65
2022/09/15 07:31:02;;;;;;;4.43;0.93;;;16.70;59.70;;;;;;5051097;28;20041;-66
2022/09/15 07:33:27;;;;;;;7.93;1.20;;;16.70;59.10;;;;;;5034915;28;20041;-66
2022/09/15 07:35:53;;;;;;;4.90;0.90;;;16.70;59.00;;;;;;5052689;28;20044;-66
2022/09/15 07:38:19;;;;;;;6.70;1.30;;;16.70;58.70;;;;;;5051610;28;20040;-66
2022/09/15 07:40:45;;;;;;;4.45;1.15;;;16.80;58.70;;;;;;5052453;28;20060;-66
2022/09/15 07:43:11;;;;;;;7.80;1.00;;;16.90;58.80;;;;;;5034817;28;20041;-66
2022/09/15 07:45:37;;;;;;;7.88;1.40;;;16.90;58.70;;;;;;5051096;28;20044;-66
2022/09/15 07:48:03;;;;;;;6.93;1.60;;;17.00;58.60;;;;;;5054811;28;20126;-66
2022/09/15 07:50:28;;;;;;;4.72;1.27;;;17.00;58.80;;;;;;5067630;28;20063;-66
2022/09/15 07:52:55;;;;;;;6.47;1.35;;;17.00;59.40;;;;;;5065043;28;20044;-66
2022/09/15 07:55:21;;;;;;;3.65;0.90;;;17.10;58.60;;;;;;5066589;28;20041;-66
2022/09/15 07:57:47;;;;;;;5.82;1.15;;;17.20;58.50;;;;;;5049011;28;20037;-66
2022/09/15 08:00:14;;;;;;;4.97;1.08;;;17.30;58.60;;;;;;5064098;28;20139;-66
2022/09/15 08:02:39;;;;;;;5.03;1.17;;;17.30;58.50;;;;;;5067863;28;20484;-67
2022/09/15 08:05:05;;;;;;;5.50;1.00;;;17.40;58.40;;;;;;5055941;28;20103;-67
2022/09/15 08:07:31;;;;;;;4.03;1.23;;;17.50;58.00;;;;;;5054491;28;20033;-68
2022/09/15 08:09:57;;;;;;;5.63;0.80;;;17.50;58.10;;;;;;5054839;28;20048;-68
2022/09/15 08:12:22;;;;;;;5.43;1.45;;;17.60;58.30;;;;;;5054935;28;20102;-68
2022/09/15 08:14:48;;;;;;;5.75;1.23;;;17.80;58.30;;;;;;5038282;28;20061;-68
2022/09/15 08:17:14;;;;;;;8.85;1.20;;;17.90;58.00;;;;;;5054808;28;20083;-68
2022/09/15 08:19:39;;;;;;;4.97;1.17;;;17.90;57.30;;;;;;5038189;28;20099;-68
2022/09/15 08:22:05;;;;;;;8.25;1.67;;;18.00;57.10;;;;;;5054878;28;20045;-68
2022/09/15 08:24:31;;;;;;;6.05;1.02;;;18.20;57.20;;;;;;5053734;28;20063;-66
2022/09/15 08:26:56;;;;;;;7.47;0.90;;;18.20;56.80;;;;;;5054727;28;20129;-66
2022/09/15 08:29:22;;;;;;;5.95;1.13;;;18.40;56.60;;;;;;5037727;28;20041;-66
2022/09/15 08:31:48;;;;;;;4.28;1.33;;;18.40;56.00;;;;;;5054436;28;20048;-66
2022/09/15 08:34:15;;;;;;;3.85;1.30;;;18.50;55.70;;;;;;5055911;28;20127;-66
2022/09/15 08:36:41;;;;;;;5.47;0.90;;;18.60;55.70;;;;;;5054469;28;20417;-66
2022/09/15 08:39:07;;;;;;;7.80;1.05;;;18.60;55.60;;;;;;5054549;28;20443;-66
2022/09/15 08:41:36;;;;;;;3.35;0.90;;;18.60;55.70;;;;;;5054208;28;20083;-66
2022/09/15 08:44:25;;;;;;;5.13;1.25;;;18.70;55.60;;;;;;5054272;28;20037;-66
2022/09/15 08:47:01;;;;;;;4.03;0.80;;;18.80;55.70;;;;;;5054644;28;20453;-66
2022/09/15 08:49:37;;;;;;;3.30;0.70;;;18.80;55.70;;;;;;5054071;28;20037;-66
2022/09/15 08:52:09;;;;;;;4.15;0.70;;;18.80;55.20;;;;;;5037455;28;20040;-66
2022/09/15 08:54:34;;;;;;;7.03;1.30;;;18.90;54.40;;;;;;5053916;28;20040;-66
2022/09/15 08:57:02;;;;;;;4.95;1.10;;;18.90;54.00;;;;;;5054249;28;20040;-65
2022/09/15 08:59:33;;;;;;;3.33;0.90;;;18.90;53.60;;;;;;5053874;28;20417;-66
2022/09/15 09:02:11;;;;;;;6.35;1.00;;;19.00;53.50;;;;;;5054222;28;20033;-66
2022/09/15 09:04:56;;;;;;;4.85;1.20;;;19.00;53.40;;;;;;5054034;28;20079;-65
2022/09/15 09:08:03;;;;;;;5.57;0.90;;;19.10;53.40;;;;;;5054159;28;20072;-66
2022/09/15 09:10:59;;;;;;;4.75;1.10;;;19.20;53.30;;;;;;5052005;28;20041;-66
2022/09/15 09:13:45;;;;;;;4.82;1.15;;;19.30;53.00;;;;;;5053498;28;20473;-66
2022/09/15 09:16:39;;;;;;;3.58;0.80;;;19.40;52.90;;;;;;5032466;28;20623;-66
2022/09/15 09:19:07;;;;;;;4.53;0.75;;;19.40;52.90;;;;;;5047014;28;20049;-66
2022/09/15 09:21:49;;;;;;;5.05;0.98;;;19.40;52.90;;;;;;5053070;28;20120;-66
2022/09/15 09:24:20;;;;;;;4.85;1.27;;;19.50;52.60;;;;;;5036822;28;20040;-66
2022/09/15 09:26:52;;;;;;;4.18;0.93;;;19.50;52.70;;;;;;5053636;28;20049;-68
2022/09/15 09:29:23;;;;;;;3.40;1.10;;;19.50;52.50;;;;;;5053798;28;20041;-67
2022/09/15 09:31:50;;;;;;;4.90;1.33;;;19.50;52.30;;;;;;5054682;28;20068;-68
2022/09/15 09:34:37;;;;;;;4.90;1.05;;;19.50;52.30;;;;;;5053637;28;20044;-68
2022/09/15 09:37:14;;;;;;;2.45;0.80;;;19.60;52.00;;;;;;5036668;28;20049;-68
2022/09/15 09:39:40;;;;;;;7.72;1.23;;;19.70;52.40;;;;;;5036899;28;20107;-68
2022/09/15 09:42:12;;;;;;;3.58;0.63;;;19.70;52.20;;;;;;5053053;28;20476;-68
2022/09/15 09:44:39;;;;;;;4.03;1.00;;;19.80;52.00;;;;;;5053063;28;20040;-68
2022/09/15 09:47:06;;;;;;;5.47;1.10;;;19.80;51.40;;;;;;5053383;28;20045;-65
2022/09/15 09:49:44;;;;;;;4.63;0.75;;;19.80;51.40;;;;;;5053046;28;20045;-65
2022/09/15 09:52:11;;;;;;;6.15;0.90;;;19.80;51.20;;;;;;5054299;28;20396;-66
2022/09/15 09:54:37;;;;;;;4.93;0.70;;;19.80;51.10;;;;;;5053098;28;20396;-65
2022/09/15 09:57:12;;;;;;;6.20;0.90;;;19.80;50.90;;;;;;5053127;28;20036;-66
2022/09/15 09:59:41;;;;;;;4.10;1.15;;;19.80;50.80;;;;;;5052820;28;20044;-66
2022/09/15 10:02:09;;;;;;;3.40;0.50;;;19.80;50.00;;;;;;5052929;28;20480;-64
2022/09/15 10:04:39;;;;;;;3.80;0.82;;;19.80;49.20;;;;;;5052007;28;20519;-64
2022/09/15 10:07:06;;;;;;;4.80;0.80;;;19.80;48.60;;;;;;5020232;28;20044;-64
2022/09/15 10:09:32;;;;;;;5.30;0.70;;;19.80;48.80;;;;;;5036347;28;20049;-64
2022/09/15 10:12:00;;;;;;;3.70;0.85;;;19.90;48.60;;;;;;5036033;28;20105;-64
2022/09/15 10:14:25;;;;;;;4.55;1.20;;;19.90;48.40;;;;;;5053946;28;20476;-64
2022/09/15 10:17:12;;;;;;;3.08;0.75;;;19.90;49.00;;;;;;5052778;28;20081;-64
2022/09/15 10:19:49;;;;;;;5.25;0.90;;;20.00;49.30;;;;;;5033077;28;20037;-64
2022/09/15 10:22:30;;;;;;;5.47;0.80;;;19.90;49.60;;;;;;5016318;28;20041;-64
2022/09/15 10:24:57;;;;;;;2.65;0.77;;;19.90;50.20;;;;;;5052055;28;20052;-65
2022/09/15 10:27:32;;;;;;;3.22;0.80;;;19.90;50.00;;;;;;5052421;28;20048;-64
2022/09/15 10:30:18;;;;;;;3.70;0.68;;;19.90;50.20;;;;;;5052367;28;20037;-65
2022/09/15 10:32:44;;;;;;;5.40;0.77;;;19.90;50.40;;;;;;5052571;28;20400;-64
2022/09/15 10:35:19;;;;;;;9.88;1.20;;;19.90;50.20;;;;;;5052344;28;20053;-64
2022/09/15 10:37:57;;;;;;;7.05;1.48;;;19.90;50.20;;;;;;5052725;28;20041;-65
2022/09/15 10:40:29;;;;;;;3.67;1.13;;;19.90;50.10;;;;;;5052167;28;20120;-64
2022/09/15 10:43:33;;;;;;;6.28;1.05;;;19.90;50.40;;;;;;5052334;28;20101;-64
2022/09/15 10:46:17;;;;;;;5.30;0.93;;;19.90;50.50;;;;;;5052073;28;20041;-65
2022/09/15 10:48:49;;;;;;;6.30;1.08;;;19.90;50.60;;;;;;5053386;28;20797;-65
2022/09/15 10:51:37;;;;;;;5.20;0.77;;;19.90;50.60;;;;;;5052205;28;20123;-65
2022/09/15 10:54:05;;;;;;;3.97;0.80;;;19.90;51.00;;;;;;5052165;28;20041;-67
2022/09/15 10:56:45;;;;;;;4.10;0.90;;;20.10;50.80;;;;;;5051829;28;20560;-67
2022/09/15 10:59:31;;;;;;;4.35;0.80;;;20.10;50.40;;;;;;5052234;28;20098;-67
2022/09/15 11:02:20;;;;;;;5.47;0.98;;;20.20;50.40;;;;;;5051874;28;20400;-67
2022/09/15 11:05:00;;;;;;;5.18;0.90;;;20.30;50.20;;;;;;5055341;28;20056;-65
2022/09/15 11:07:47;;;;;;;3.67;0.90;;;20.30;50.20;;;;;;5051971;28;20091;-66
2022/09/15 11:10:19;;;;;;;4.45;0.80;;;20.40;50.10;;;;;;5051726;28;20029;-67
2022/09/15 11:13:13;;;;;;;2.83;0.90;;;20.40;50.00;;;;;;5051538;28;20042;-65
2022/09/15 11:15:49;;;;;;;;;;;20.40;50.40;;;;;;5048699;28;20053;-65
2022/09/15 11:18:33;;;;;;;4.32;1.00;;;20.30;50.00;;;;;;5033453;28;20288;-65
2022/09/15 11:21:24;;;;;;;3.03;0.80;;;20.30;49.10;;;;;;5051600;28;20510;-65
2022/09/15 11:23:53;;;;;;;6.28;1.13;;;20.40;48.30;;;;;;5051240;28;20049;-65
2022/09/15 11:26:28;;;;;;;3.80;1.02;;;20.30;48.00;;;;;;5051614;28;20045;-65
2022/09/15 11:29:41;;;;;;;3.25;0.98;;;20.30;48.30;;;;;;5051413;28;20045;-65
2022/09/15 11:32:14;;;;;;;3.97;0.80;;;20.30;48.40;;;;;;5036185;28;20064;-64
2022/09/15 11:35:16;;;;;;;4.32;0.77;;;20.30;47.90;;;;;;5051528;28;20037;-64
2022/09/15 11:37:47;;;;;;;1.52;1.05;;;20.30;46.80;;;;;;5057672;28;20195;-64
2022/09/15 11:40:36;;;;;;;3.65;0.70;;;20.30;46.90;;;;;;5052198;28;20120;-64
2022/09/15 11:43:31;;;;;;;4.00;0.80;;;20.30;46.80;;;;;;5052663;28;20126;-65
2022/09/15 11:45:59;;;;;;;5.45;0.90;;;20.30;47.10;;;;;;5031174;28;20132;-65
2022/09/15 11:48:47;;;;;;;3.03;0.77;;;20.30;47.50;;;;;;5036652;28;20037;-65
2022/09/15 11:51:15;;;;;;;5.93;0.77;;;20.40;47.80;;;;;;5050998;28;20072;-65
2022/09/15 11:53:47;;;;;;;3.55;0.60;;;20.40;48.00;;;;;;5051266;28;20392;-65
2022/09/15 11:56:12;;;;;;;4.75;1.20;;;20.40;47.30;;;;;;5050575;28;20505;-64
2022/09/15 11:59:03;;;;;;;4.68;0.82;;;20.40;46.90;;;;;;5051334;28;20041;-64
2022/09/15 12:02:07;;;;;;;11.57;0.80;;;20.50;46.70;;;;;;5051585;28;20128;-64
2022/09/15 12:04:39;;;;;;;4.95;0.60;;;20.50;47.50;;;;;;5049461;28;20048;-64
2022/09/15 12:07:12;;;;;;;9.82;0.95;;;20.50;47.10;;;;;;5067950;28;20044;-67
2022/09/15 12:09:39;;;;;;;3.97;0.60;;;20.60;46.50;;;;;;5051331;28;20133;-67
2022/09/15 12:12:14;;;;;;;7.32;0.95;;;20.60;47.50;;;;;;5034569;28;20052;-66
2022/09/15 12:14:48;;;;;;;2.10;0.65;;;20.60;50.10;;;;;;5050688;28;20492;-66
2022/09/15 12:17:30;;;;;;;8.52;0.88;;;20.50;50.90;;;;;;5050525;28;20044;-66
2022/09/15 12:20:09;;;;;;;3.05;0.65;;;20.40;51.50;;;;;;5050960;28;20431;-66
2022/09/15 12:23:14;;;;;;;4.55;0.93;;;20.40;51.80;;;;;;5051210;28;20396;-66
2022/09/15 12:25:58;;;;;;;3.45;0.68;;;20.30;52.30;;;;;;5067237;28;20745;-66
2022/09/15 12:28:25;;;;;;;3.75;0.70;;;20.20;52.90;;;;;;5049860;28;20527;-66
2022/09/15 12:31:25;;;;;;;3.22;0.60;;;20.00;52.80;;;;;;5051029;28;20174;-66
2022/09/15 12:34:29;;;;;;;2.35;0.57;;;20.00;53.20;;;;;;5043779;28;20040;-66
2022/09/15 12:37:16;;;;;;;2.90;0.80;;;19.90;54.20;;;;;;5033847;28;20090;-66
2022/09/15 12:39:44;;;;;;;4.85;0.82;;;19.90;54.40;;;;;;5050837;28;20067;-66
2022/09/15 12:42:25;;;;;;;4.50;0.70;;;19.80;54.20;;;;;;5051131;28;20044;-66
2022/09/15 12:45:05;;;;;;;3.40;0.75;;;19.80;53.60;;;;;;5051062;28;20477;-66
2022/09/15 12:47:40;;;;;;;7.65;1.00;;;19.80;53.50;;;;;;5033973;28;20385;-67
2022/09/15 12:50:15;;;;;;;2.35;0.82;;;19.70;53.90;;;;;;5050352;28;20103;-67
2022/09/15 12:52:50;;;;;;;5.70;1.05;;;19.70;54.70;;;;;;5054392;28;20480;-67
2022/09/15 12:55:21;;;;;;;5.43;0.98;;;19.70;54.70;;;;;;5054326;28;20103;-67
2022/09/15 12:57:56;;;;;;;4.82;0.70;;;19.70;54.40;;;;;;5054059;28;20041;-68
2022/09/15 13:00:25;;;;;;;3.97;0.77;;;19.80;54.40;;;;;;5054063;28;20048;-67
2022/09/15 13:02:51;;;;;;;3.65;1.65;;;19.80;54.10;;;;;;5054178;28;20500;-67
2022/09/15 13:05:41;;;;;;;5.07;0.90;;;19.80;53.50;;;;;;5055145;28;20099;-67
2022/09/15 13:08:36;;;;;;;2.85;0.65;;;19.80;53.80;;;;;;5053979;28;20400;-67
2022/09/15 13:11:20;;;;;;;;;;;19.80;54.80;;;;;;5054411;28;20049;-67